Oakland, CA (94606)

1:20 AM PDT on July 24, 2016 (GMT -0700)
Lake Merritt | | Change Station

Elev 23 ft 37.80 °N, 122.25 °W | Updated 127 days ago

Clear
Clear
58 °F
Feels Like 58 °F
N
5
Wind Variable Wind from SSW
Gusts mph

Today
High -- | Low -- °F
--% Chance of Precip.
Yesterday
High -- | Low -- °F
Precip. -- in
Pressure 29.86 in
Visibility 9.0 miles
Clouds Clear
Dew Point 53 °F
Humidity 84%
Rainfall in
Snow Depth Not available.
6:06 AM 8:24 PM
Waning Gibbous, 78% visible
METAR KOAK 240753Z 00000KT 9SM CLR 15/12 A2987 RMK AO2 SLP112 T01500122 402500122
Pressure 29.86 in
Visibility 9.0 miles
Clouds Clear
Dew Point 53 °F
Humidity 84%
Rainfall in
Snow Depth Not available.
6:06 AM 8:24 PM
Waning Gibbous, 78% visible
METAR KOAK 240753Z 00000KT 9SM CLR 15/12 A2987 RMK AO2 SLP112 T01500122 402500122

10-Day Weather Forecast

Almanac

Astronomy

Jul. 24, 2016 Rise Set
Actual Time
Civil Twilight
Nautical Twilight
Astronomical Twilight
Moon
Length of Visible Light
Length of Day
Tomorrow will be .
, % of the Moon is Illuminated

Today's Extremes

State Highs State Lows

Community

WunderPhotos

Upload Photos

1,927,041 photos uploaded!

WunderBlog® & News

Nearby

Air Quality

  Air Quality AQ Index Pollutant
Not available.

Snow Depth

Station Depth Elevation

Earthquake Activity

City Distance Mag. Time & Date
Minimum magnitude displayed is 2.5.

Coastal Water Temperatures

Place Temperature

Stations

Nearby Weather Stations

Station Location Temp. Windchill Dew Point Humidity Wind Precip. Elev Updated Type
                   

Watches & Warnings

There are currently no watches in effect.